Palmer, Illinois
Current Conditions -  °F | °C
As of 8:15 AM on Friday 31 Oct 2014 (Local Time) from KTAZ Reporting Station
Broken Clouds Broken Clouds  
Wind Chill: 27°   Ceiling: 5000
Heat Index: 37°   Visibility: 10mi
Dew Point: 28°   Wind: 21mph
Humidity: 70%   Direction: 330°NNW
Pressure: 30.19"   Gusts: 32mph
Location:  39.46°N, 89.4°W
Report Text: KTAZ 311315Z AUTO 33018G28KT 10SM SCT044 BKN050 03/M02 A3019 RMK AO2
Loading
Personal Weather Stations






























Interactive Weather Map New forecast layout! Learn more

10-Day Weather Forecast

Advertisements
Track Severe Weather on mobile